sensor_id;sensor_type;location;lat;lon;timestamp;temperature;humidity
19538;DHT22;9914;51.008;4.300;2023-04-24T00:01:29;11.40;99.90
19538;DHT22;9914;51.008;4.300;2023-04-24T00:03:55;11.50;99.90
19538;DHT22;9914;51.008;4.300;2023-04-24T00:06:25;11.40;99.90
19538;DHT22;9914;51.008;4.300;2023-04-24T00:08:58;11.30;99.90
19538;DHT22;9914;51.008;4.300;2023-04-24T00:11:24;11.20;99.90
19538;DHT22;9914;51.008;4.300;2023-04-24T00:13:50;11.30;99.90
19538;DHT22;9914;51.008;4.300;2023-04-24T00:16:16;11.30;99.90
19538;DHT22;9914;51.008;4.300;2023-04-24T00:18:41;11.40;99.90
19538;DHT22;9914;51.008;4.300;2023-04-24T00:21:07;11.40;99.90
19538;DHT22;9914;51.008;4.300;2023-04-24T00:23:32;11.30;99.90
19538;DHT22;9914;51.008;4.300;2023-04-24T00:25:58;11.20;99.90
19538;DHT22;9914;51.008;4.300;2023-04-24T00:28:24;11.20;99.90
19538;DHT22;9914;51.008;4.300;2023-04-24T00:30:49;11.10;99.90
19538;DHT22;9914;51.008;4.300;2023-04-24T00:33:15;11.10;99.90
19538;DHT22;9914;51.008;4.300;2023-04-24T00:35:41;11.10;99.90
19538;DHT22;9914;51.008;4.300;2023-04-24T00:38:06;11.20;99.90
19538;DHT22;9914;51.008;4.300;2023-04-24T00:40:32;11.20;99.90
19538;DHT22;9914;51.008;4.300;2023-04-24T00:42:58;11.30;99.90
19538;DHT22;9914;51.008;4.300;2023-04-24T00:45:24;11.30;99.90
19538;DHT22;9914;51.008;4.300;2023-04-24T00:47:52;11.30;99.90
19538;DHT22;9914;51.008;4.300;2023-04-24T00:50:18;11.30;99.90
19538;DHT22;9914;51.008;4.300;2023-04-24T00:52:44;11.30;99.90
19538;DHT22;9914;51.008;4.300;2023-04-24T00:55:10;11.40;99.90
19538;DHT22;9914;51.008;4.300;2023-04-24T00:57:37;11.40;99.90
19538;DHT22;9914;51.008;4.300;2023-04-24T01:00:04;11.40;99.90
19538;DHT22;9914;51.008;4.300;2023-04-24T01:02:31;11.40;99.90
19538;DHT22;9914;51.008;4.300;2023-04-24T01:05:00;11.50;99.90
19538;DHT22;9914;51.008;4.300;2023-04-24T01:07:26;11.40;99.90
19538;DHT22;9914;51.008;4.300;2023-04-24T01:09:52;11.30;99.90
19538;DHT22;9914;51.008;4.300;2023-04-24T01:12:19;11.30;99.90
19538;DHT22;9914;51.008;4.300;2023-04-24T01:14:45;11.40;99.90
19538;DHT22;9914;51.008;4.300;2023-04-24T01:17:11;11.40;99.90
19538;DHT22;9914;51.008;4.300;2023-04-24T01:19:37;11.50;99.90
19538;DHT22;9914;51.008;4.300;2023-04-24T01:22:11;11.40;99.90
19538;DHT22;9914;51.008;4.300;2023-04-24T01:24:37;11.40;99.90
19538;DHT22;9914;51.008;4.300;2023-04-24T01:27:03;11.30;99.90
19538;DHT22;9914;51.008;4.300;2023-04-24T01:29:28;11.30;99.90
19538;DHT22;9914;51.008;4.300;2023-04-24T01:31:55;11.40;99.90
19538;DHT22;9914;51.008;4.300;2023-04-24T01:34:21;11.30;99.90
19538;DHT22;9914;51.008;4.300;2023-04-24T01:36:48;11.30;99.90
19538;DHT22;9914;51.008;4.300;2023-04-24T01:39:13;11.20;99.90
19538;DHT22;9914;51.008;4.300;2023-04-24T01:41:40;11.20;99.90
19538;DHT22;9914;51.008;4.300;2023-04-24T01:44:06;11.20;99.90
19538;DHT22;9914;51.008;4.300;2023-04-24T01:46:32;11.10;99.90
19538;DHT22;9914;51.008;4.300;2023-04-24T01:49:00;10.80;99.90
19538;DHT22;9914;51.008;4.300;2023-04-24T01:51:26;10.70;99.90
19538;DHT22;9914;51.008;4.300;2023-04-24T01:53:52;10.70;99.90
19538;DHT22;9914;51.008;4.300;2023-04-24T01:56:20;10.70;99.90
19538;DHT22;9914;51.008;4.300;2023-04-24T01:58:47;10.70;99.90
19538;DHT22;9914;51.008;4.300;2023-04-24T02:01:20;10.80;99.90
19538;DHT22;9914;51.008;4.300;2023-04-24T02:03:46;10.80;99.90
19538;DHT22;9914;51.008;4.300;2023-04-24T02:06:11;10.70;99.90
19538;DHT22;9914;51.008;4.300;2023-04-24T02:08:37;10.60;99.90
19538;DHT22;9914;51.008;4.300;2023-04-24T02:11:03;10.50;99.90
19538;DHT22;9914;51.008;4.300;2023-04-24T02:13:28;10.40;99.90
19538;DHT22;9914;51.008;4.300;2023-04-24T02:15:54;10.40;99.90
19538;DHT22;9914;51.008;4.300;2023-04-24T02:18:20;10.30;99.90
19538;DHT22;9914;51.008;4.300;2023-04-24T02:20:46;10.20;99.90
19538;DHT22;9914;51.008;4.300;2023-04-24T02:23:11;10.20;99.90
19538;DHT22;9914;51.008;4.300;2023-04-24T02:25:38;10.20;99.90
19538;DHT22;9914;51.008;4.300;2023-04-24T02:28:04;10.20;99.90
19538;DHT22;9914;51.008;4.300;2023-04-24T02:30:29;10.30;99.90
19538;DHT22;9914;51.008;4.300;2023-04-24T02:32:56;10.30;99.90
19538;DHT22;9914;51.008;4.300;2023-04-24T02:35:21;10.30;99.90
19538;DHT22;9914;51.008;4.300;2023-04-24T02:37:47;10.30;99.90
19538;DHT22;9914;51.008;4.300;2023-04-24T02:40:13;10.40;99.90
19538;DHT22;9914;51.008;4.300;2023-04-24T02:42:38;10.40;99.90
19538;DHT22;9914;51.008;4.300;2023-04-24T02:45:04;10.40;99.90
19538;DHT22;9914;51.008;4.300;2023-04-24T02:47:30;10.30;99.90
19538;DHT22;9914;51.008;4.300;2023-04-24T02:49:56;10.30;99.90
19538;DHT22;9914;51.008;4.300;2023-04-24T02:52:22;10.40;99.90
19538;DHT22;9914;51.008;4.300;2023-04-24T02:54:47;10.50;99.90
19538;DHT22;9914;51.008;4.300;2023-04-24T02:57:13;10.50;99.90
19538;DHT22;9914;51.008;4.300;2023-04-24T02:59:38;10.60;99.90
19538;DHT22;9914;51.008;4.300;2023-04-24T03:02:04;10.50;99.90
19538;DHT22;9914;51.008;4.300;2023-04-24T03:04:31;10.40;99.90
19538;DHT22;9914;51.008;4.300;2023-04-24T03:06:57;10.40;99.90
19538;DHT22;9914;51.008;4.300;2023-04-24T03:09:23;10.40;99.90
19538;DHT22;9914;51.008;4.300;2023-04-24T03:11:49;10.30;99.90
19538;DHT22;9914;51.008;4.300;2023-04-24T03:14:15;10.20;99.90
19538;DHT22;9914;51.008;4.300;2023-04-24T03:16:41;10.20;99.90
19538;DHT22;9914;51.008;4.300;2023-04-24T03:19:06;10.20;99.90
19538;DHT22;9914;51.008;4.300;2023-04-24T03:21:32;10.20;99.90
19538;DHT22;9914;51.008;4.300;2023-04-24T03:23:58;10.30;99.90
19538;DHT22;9914;51.008;4.300;2023-04-24T03:26:24;10.30;99.90
19538;DHT22;9914;51.008;4.300;2023-04-24T03:28:50;10.40;99.90
19538;DHT22;9914;51.008;4.300;2023-04-24T03:31:15;10.40;99.90
19538;DHT22;9914;51.008;4.300;2023-04-24T03:33:42;10.30;99.90
19538;DHT22;9914;51.008;4.300;2023-04-24T03:36:08;10.30;99.90
19538;DHT22;9914;51.008;4.300;2023-04-24T03:38:33;10.30;99.90
19538;DHT22;9914;51.008;4.300;2023-04-24T03:40:59;10.30;99.90
19538;DHT22;9914;51.008;4.300;2023-04-24T03:43:24;10.20;99.90
19538;DHT22;9914;51.008;4.300;2023-04-24T03:45:52;10.20;99.90
19538;DHT22;9914;51.008;4.300;2023-04-24T03:48:18;10.20;99.90
19538;DHT22;9914;51.008;4.300;2023-04-24T03:50:43;10.30;99.90
19538;DHT22;9914;51.008;4.300;2023-04-24T03:53:09;10.30;99.90
19538;DHT22;9914;51.008;4.300;2023-04-24T03:55:35;10.30;99.90
19538;DHT22;9914;51.008;4.300;2023-04-24T03:58:01;10.20;99.90
19538;DHT22;9914;51.008;4.300;2023-04-24T04:00:26;10.20;99.90
19538;DHT22;9914;51.008;4.300;2023-04-24T04:02:53;10.30;99.90
19538;DHT22;9914;51.008;4.300;2023-04-24T04:05:18;10.30;99.90
19538;DHT22;9914;51.008;4.300;2023-04-24T04:07:44;10.30;99.90
19538;DHT22;9914;51.008;4.300;2023-04-24T04:10:10;10.30;99.90
19538;DHT22;9914;51.008;4.300;2023-04-24T04:12:36;10.20;99.90
19538;DHT22;9914;51.008;4.300;2023-04-24T04:15:02;10.20;99.90
19538;DHT22;9914;51.008;4.300;2023-04-24T04:17:27;10.20;99.90
19538;DHT22;9914;51.008;4.300;2023-04-24T04:19:53;10.10;99.90
19538;DHT22;9914;51.008;4.300;2023-04-24T04:22:19;9.90;99.90
19538;DHT22;9914;51.008;4.300;2023-04-24T04:24:44;10.00;99.90
19538;DHT22;9914;51.008;4.300;2023-04-24T04:27:11;10.00;99.90
19538;DHT22;9914;51.008;4.300;2023-04-24T04:29:37;10.00;99.90
19538;DHT22;9914;51.008;4.300;2023-04-24T04:32:03;10.00;99.90
19538;DHT22;9914;51.008;4.300;2023-04-24T04:34:29;10.00;99.90
19538;DHT22;9914;51.008;4.300;2023-04-24T04:36:57;9.90;99.90
19538;DHT22;9914;51.008;4.300;2023-04-24T04:39:25;9.90;99.90
19538;DHT22;9914;51.008;4.300;2023-04-24T04:41:51;9.80;99.90
19538;DHT22;9914;51.008;4.300;2023-04-24T04:44:16;9.70;99.90
19538;DHT22;9914;51.008;4.300;2023-04-24T04:46:42;9.70;99.90
19538;DHT22;9914;51.008;4.300;2023-04-24T04:49:08;9.70;99.90
19538;DHT22;9914;51.008;4.300;2023-04-24T04:51:34;9.60;99.90
19538;DHT22;9914;51.008;4.300;2023-04-24T04:54:00;9.60;99.90
19538;DHT22;9914;51.008;4.300;2023-04-24T04:56:26;9.60;99.90
19538;DHT22;9914;51.008;4.300;2023-04-24T04:58:51;9.60;99.90
19538;DHT22;9914;51.008;4.300;2023-04-24T05:01:18;9.70;99.90
19538;DHT22;9914;51.008;4.300;2023-04-24T05:03:44;9.60;99.90
19538;DHT22;9914;51.008;4.300;2023-04-24T05:06:09;9.60;99.90
19538;DHT22;9914;51.008;4.300;2023-04-24T05:08:35;9.50;99.90
19538;DHT22;9914;51.008;4.300;2023-04-24T05:11:01;9.40;99.90
19538;DHT22;9914;51.008;4.300;2023-04-24T05:13:26;9.40;99.90
19538;DHT22;9914;51.008;4.300;2023-04-24T05:15:52;9.30;99.90
19538;DHT22;9914;51.008;4.300;2023-04-24T05:18:17;9.30;99.90
19538;DHT22;9914;51.008;4.300;2023-04-24T05:20:43;9.30;99.90
19538;DHT22;9914;51.008;4.300;2023-04-24T05:23:09;9.30;99.90
19538;DHT22;9914;51.008;4.300;2023-04-24T05:25:35;9.40;99.90
19538;DHT22;9914;51.008;4.300;2023-04-24T05:28:01;9.50;99.90
19538;DHT22;9914;51.008;4.300;2023-04-24T05:30:28;9.60;99.90
19538;DHT22;9914;51.008;4.300;2023-04-24T05:32:53;9.70;99.90
19538;DHT22;9914;51.008;4.300;2023-04-24T05:35:19;9.70;99.90
19538;DHT22;9914;51.008;4.300;2023-04-24T05:37:44;9.80;99.90
19538;DHT22;9914;51.008;4.300;2023-04-24T05:40:10;9.80;99.90
19538;DHT22;9914;51.008;4.300;2023-04-24T05:42:36;9.80;99.90
19538;DHT22;9914;51.008;4.300;2023-04-24T05:45:02;9.80;99.90
19538;DHT22;9914;51.008;4.300;2023-04-24T05:47:28;9.80;99.90
19538;DHT22;9914;51.008;4.300;2023-04-24T05:49:54;9.80;99.90
19538;DHT22;9914;51.008;4.300;2023-04-24T05:52:19;9.90;99.90
19538;DHT22;9914;51.008;4.300;2023-04-24T05:54:45;9.80;99.90
19538;DHT22;9914;51.008;4.300;2023-04-24T05:57:11;9.70;99.90
19538;DHT22;9914;51.008;4.300;2023-04-24T05:59:37;9.70;99.90
19538;DHT22;9914;51.008;4.300;2023-04-24T06:02:06;9.70;99.90
19538;DHT22;9914;51.008;4.300;2023-04-24T06:04:32;9.60;99.90
19538;DHT22;9914;51.008;4.300;2023-04-24T06:06:58;9.60;99.90
19538;DHT22;9914;51.008;4.300;2023-04-24T06:09:25;9.60;99.90
19538;DHT22;9914;51.008;4.300;2023-04-24T06:11:51;9.70;99.90
19538;DHT22;9914;51.008;4.300;2023-04-24T06:14:19;9.70;99.90
19538;DHT22;9914;51.008;4.300;2023-04-24T06:16:45;9.60;99.90
19538;DHT22;9914;51.008;4.300;2023-04-24T06:19:10;9.70;99.90
19538;DHT22;9914;51.008;4.300;2023-04-24T06:21:36;9.70;99.90
19538;DHT22;9914;51.008;4.300;2023-04-24T06:24:02;9.70;99.90
19538;DHT22;9914;51.008;4.300;2023-04-24T06:26:29;9.80;99.90
19538;DHT22;9914;51.008;4.300;2023-04-24T06:28:55;9.70;99.90
19538;DHT22;9914;51.008;4.300;2023-04-24T06:31:21;9.70;99.90
19538;DHT22;9914;51.008;4.300;2023-04-24T06:33:48;9.70;99.90
19538;DHT22;9914;51.008;4.300;2023-04-24T06:36:14;9.70;99.90
19538;DHT22;9914;51.008;4.300;2023-04-24T06:38:41;9.70;99.90
19538;DHT22;9914;51.008;4.300;2023-04-24T06:41:07;9.70;99.90
19538;DHT22;9914;51.008;4.300;2023-04-24T06:43:33;9.70;99.90
19538;DHT22;9914;51.008;4.300;2023-04-24T06:45:59;9.90;99.90
19538;DHT22;9914;51.008;4.300;2023-04-24T06:48:25;10.00;99.90
19538;DHT22;9914;51.008;4.300;2023-04-24T06:50:52;10.00;99.90
19538;DHT22;9914;51.008;4.300;2023-04-24T06:53:18;10.00;99.90
19538;DHT22;9914;51.008;4.300;2023-04-24T06:55:44;10.10;99.90
19538;DHT22;9914;51.008;4.300;2023-04-24T06:58:11;10.10;99.90
19538;DHT22;9914;51.008;4.300;2023-04-24T07:00:37;10.00;99.90
19538;DHT22;9914;51.008;4.300;2023-04-24T07:03:04;9.90;99.90
19538;DHT22;9914;51.008;4.300;2023-04-24T07:05:32;10.00;99.90
19538;DHT22;9914;51.008;4.300;2023-04-24T07:08:01;9.80;99.90
19538;DHT22;9914;51.008;4.300;2023-04-24T07:10:27;10.00;99.90
19538;DHT22;9914;51.008;4.300;2023-04-24T07:12:55;10.10;99.90
19538;DHT22;9914;51.008;4.300;2023-04-24T07:15:22;10.20;99.90
19538;DHT22;9914;51.008;4.300;2023-04-24T07:17:48;10.20;99.90
19538;DHT22;9914;51.008;4.300;2023-04-24T07:20:14;10.30;99.90
19538;DHT22;9914;51.008;4.300;2023-04-24T07:22:41;10.60;99.90
19538;DHT22;9914;51.008;4.300;2023-04-24T07:25:07;10.70;99.90
19538;DHT22;9914;51.008;4.300;2023-04-24T07:27:34;10.80;99.90
19538;DHT22;9914;51.008;4.300;2023-04-24T07:30:00;10.80;99.90
19538;DHT22;9914;51.008;4.300;2023-04-24T07:32:26;10.80;99.90
19538;DHT22;9914;51.008;4.300;2023-04-24T07:34:51;10.90;99.90
19538;DHT22;9914;51.008;4.300;2023-04-24T07:37:17;10.90;99.90
19538;DHT22;9914;51.008;4.300;2023-04-24T07:39:43;11.00;99.90
19538;DHT22;9914;51.008;4.300;2023-04-24T07:42:09;11.20;99.90
19538;DHT22;9914;51.008;4.300;2023-04-24T07:44:38;11.30;99.90
19538;DHT22;9914;51.008;4.300;2023-04-24T07:47:06;11.30;99.90
19538;DHT22;9914;51.008;4.300;2023-04-24T07:49:32;11.00;99.90
19538;DHT22;9914;51.008;4.300;2023-04-24T07:51:59;11.00;99.90
19538;DHT22;9914;51.008;4.300;2023-04-24T07:54:30;11.00;99.90
19538;DHT22;9914;51.008;4.300;2023-04-24T07:56:55;10.70;99.90
19538;DHT22;9914;51.008;4.300;2023-04-24T07:59:21;10.70;99.90
19538;DHT22;9914;51.008;4.300;2023-04-24T08:01:47;10.60;99.90
19538;DHT22;9914;51.008;4.300;2023-04-24T08:04:12;10.70;99.90
19538;DHT22;9914;51.008;4.300;2023-04-24T08:06:38;10.80;99.90
19538;DHT22;9914;51.008;4.300;2023-04-24T08:09:04;10.80;99.90
19538;DHT22;9914;51.008;4.300;2023-04-24T08:11:30;11.00;99.90
19538;DHT22;9914;51.008;4.300;2023-04-24T08:13:56;11.20;99.90
19538;DHT22;9914;51.008;4.300;2023-04-24T08:16:22;11.70;99.90
19538;DHT22;9914;51.008;4.300;2023-04-24T08:18:49;11.80;99.90
19538;DHT22;9914;51.008;4.300;2023-04-24T08:21:18;12.10;99.90
19538;DHT22;9914;51.008;4.300;2023-04-24T08:23:50;12.00;99.90
19538;DHT22;9914;51.008;4.300;2023-04-24T08:26:16;12.00;99.90
19538;DHT22;9914;51.008;4.300;2023-04-24T08:28:42;12.20;99.90
19538;DHT22;9914;51.008;4.300;2023-04-24T08:31:08;12.30;99.90
19538;DHT22;9914;51.008;4.300;2023-04-24T08:33:34;12.20;99.90
19538;DHT22;9914;51.008;4.300;2023-04-24T08:36:03;12.00;99.90
19538;DHT22;9914;51.008;4.300;2023-04-24T08:38:28;11.90;99.90
19538;DHT22;9914;51.008;4.300;2023-04-24T08:40:54;11.80;99.90
19538;DHT22;9914;51.008;4.300;2023-04-24T08:43:22;11.50;99.90
19538;DHT22;9914;51.008;4.300;2023-04-24T08:45:48;11.30;99.90
19538;DHT22;9914;51.008;4.300;2023-04-24T08:48:14;11.20;99.90
19538;DHT22;9914;51.008;4.300;2023-04-24T08:50:41;11.20;99.90
19538;DHT22;9914;51.008;4.300;2023-04-24T08:53:08;11.30;99.90
19538;DHT22;9914;51.008;4.300;2023-04-24T08:55:34;11.40;99.90
19538;DHT22;9914;51.008;4.300;2023-04-24T08:58:02;11.60;99.90
19538;DHT22;9914;51.008;4.300;2023-04-24T09:00:28;11.70;99.90
19538;DHT22;9914;51.008;4.300;2023-04-24T09:02:55;11.90;99.90
19538;DHT22;9914;51.008;4.300;2023-04-24T09:05:21;12.30;99.90
19538;DHT22;9914;51.008;4.300;2023-04-24T09:07:54;12.50;99.90
19538;DHT22;9914;51.008;4.300;2023-04-24T09:10:22;12.60;99.90
19538;DHT22;9914;51.008;4.300;2023-04-24T09:12:48;12.60;99.90
19538;DHT22;9914;51.008;4.300;2023-04-24T09:15:15;12.70;99.90
19538;DHT22;9914;51.008;4.300;2023-04-24T09:17:41;12.40;99.90
19538;DHT22;9914;51.008;4.300;2023-04-24T09:20:07;12.40;99.90
19538;DHT22;9914;51.008;4.300;2023-04-24T09:22:33;12.70;99.90
19538;DHT22;9914;51.008;4.300;2023-04-24T09:25:07;12.80;99.90
19538;DHT22;9914;51.008;4.300;2023-04-24T09:27:34;12.90;99.90
19538;DHT22;9914;51.008;4.300;2023-04-24T09:30:01;12.70;99.90
19538;DHT22;9914;51.008;4.300;2023-04-24T09:32:26;12.60;99.90
19538;DHT22;9914;51.008;4.300;2023-04-24T09:35:14;12.60;99.90
19538;DHT22;9914;51.008;4.300;2023-04-24T09:37:44;13.00;99.90
19538;DHT22;9914;51.008;4.300;2023-04-24T09:40:18;12.70;99.90
19538;DHT22;9914;51.008;4.300;2023-04-24T09:42:56;12.50;99.90
19538;DHT22;9914;51.008;4.300;2023-04-24T09:45:38;12.30;99.90
19538;DHT22;9914;51.008;4.300;2023-04-24T09:48:04;11.90;99.90
19538;DHT22;9914;51.008;4.300;2023-04-24T09:50:32;11.70;99.90
19538;DHT22;9914;51.008;4.300;2023-04-24T09:53:06;11.90;99.90
19538;DHT22;9914;51.008;4.300;2023-04-24T09:55:45;12.10;99.90
19538;DHT22;9914;51.008;4.300;2023-04-24T09:58:13;12.40;99.90
19538;DHT22;9914;51.008;4.300;2023-04-24T10:00:39;12.20;99.90
19538;DHT22;9914;51.008;4.300;2023-04-24T10:03:05;12.10;99.90
19538;DHT22;9914;51.008;4.300;2023-04-24T10:05:36;12.20;99.90
19538;DHT22;9914;51.008;4.300;2023-04-24T10:08:09;12.10;99.90
19538;DHT22;9914;51.008;4.300;2023-04-24T10:10:43;12.00;99.90
19538;DHT22;9914;51.008;4.300;2023-04-24T10:13:11;11.90;99.90
19538;DHT22;9914;51.008;4.300;2023-04-24T10:15:38;12.20;99.90
19538;DHT22;9914;51.008;4.300;2023-04-24T10:18:07;12.50;99.90
19538;DHT22;9914;51.008;4.300;2023-04-24T10:20:35;12.60;99.90
19538;DHT22;9914;51.008;4.300;2023-04-24T10:23:02;12.80;99.90
19538;DHT22;9914;51.008;4.300;2023-04-24T10:25:32;12.90;99.90
19538;DHT22;9914;51.008;4.300;2023-04-24T10:27:59;12.90;99.90
19538;DHT22;9914;51.008;4.300;2023-04-24T10:30:30;13.10;99.90
19538;DHT22;9914;51.008;4.300;2023-04-24T10:33:03;12.90;99.90
19538;DHT22;9914;51.008;4.300;2023-04-24T10:35:34;12.80;99.90
19538;DHT22;9914;51.008;4.300;2023-04-24T10:38:11;12.60;99.90
19538;DHT22;9914;51.008;4.300;2023-04-24T10:40:37;12.70;99.90
19538;DHT22;9914;51.008;4.300;2023-04-24T10:43:07;12.80;99.90
19538;DHT22;9914;51.008;4.300;2023-04-24T10:45:35;12.60;99.90
19538;DHT22;9914;51.008;4.300;2023-04-24T10:48:05;12.70;99.90
19538;DHT22;9914;51.008;4.300;2023-04-24T10:50:45;13.10;99.90
19538;DHT22;9914;51.008;4.300;2023-04-24T10:53:23;13.30;99.90
19538;DHT22;9914;51.008;4.300;2023-04-24T10:55:58;13.40;99.90
19538;DHT22;9914;51.008;4.300;2023-04-24T10:58:26;13.70;99.90
19538;DHT22;9914;51.008;4.300;2023-04-24T11:01:01;13.80;99.90
19538;DHT22;9914;51.008;4.300;2023-04-24T11:03:28;13.40;99.90
19538;DHT22;9914;51.008;4.300;2023-04-24T11:06:05;13.20;99.90
19538;DHT22;9914;51.008;4.300;2023-04-24T11:08:32;13.20;99.90
19538;DHT22;9914;51.008;4.300;2023-04-24T11:11:13;13.10;99.90
19538;DHT22;9914;51.008;4.300;2023-04-24T11:16:28;13.30;99.90
19538;DHT22;9914;51.008;4.300;2023-04-24T11:24:29;14.30;99.90
19538;DHT22;9914;51.008;4.300;2023-04-24T11:29:42;14.20;99.90
19538;DHT22;9914;51.008;4.300;2023-04-24T11:32:16;13.60;99.90
19538;DHT22;9914;51.008;4.300;2023-04-24T11:34:49;13.40;99.90
19538;DHT22;9914;51.008;4.300;2023-04-24T11:37:15;13.30;99.90
19538;DHT22;9914;51.008;4.300;2023-04-24T11:39:41;13.50;99.90
19538;DHT22;9914;51.008;4.300;2023-04-24T11:42:08;13.60;99.90
19538;DHT22;9914;51.008;4.300;2023-04-24T11:44:35;13.60;99.90
19538;DHT22;9914;51.008;4.300;2023-04-24T11:47:04;13.50;99.90
19538;DHT22;9914;51.008;4.300;2023-04-24T11:49:30;13.60;99.90
19538;DHT22;9914;51.008;4.300;2023-04-24T11:51:56;13.60;99.90
19538;DHT22;9914;51.008;4.300;2023-04-24T11:54:21;13.80;99.90
19538;DHT22;9914;51.008;4.300;2023-04-24T11:56:48;13.80;99.90
19538;DHT22;9914;51.008;4.300;2023-04-24T11:59:14;14.00;99.90
19538;DHT22;9914;51.008;4.300;2023-04-24T12:01:47;14.10;99.90
19538;DHT22;9914;51.008;4.300;2023-04-24T12:04:13;14.30;99.90
19538;DHT22;9914;51.008;4.300;2023-04-24T12:06:39;14.30;99.90
19538;DHT22;9914;51.008;4.300;2023-04-24T12:09:04;14.10;99.90
19538;DHT22;9914;51.008;4.300;2023-04-24T12:11:30;14.00;99.90
19538;DHT22;9914;51.008;4.300;2023-04-24T12:13:56;13.90;99.90
19538;DHT22;9914;51.008;4.300;2023-04-24T12:16:25;13.80;99.90
19538;DHT22;9914;51.008;4.300;2023-04-24T12:18:51;14.00;99.90
19538;DHT22;9914;51.008;4.300;2023-04-24T12:21:21;14.30;99.90
19538;DHT22;9914;51.008;4.300;2023-04-24T12:23:47;14.50;99.90
19538;DHT22;9914;51.008;4.300;2023-04-24T12:26:20;14.20;99.90
19538;DHT22;9914;51.008;4.300;2023-04-24T12:28:48;14.10;99.90
19538;DHT22;9914;51.008;4.300;2023-04-24T12:31:17;13.50;99.90
19538;DHT22;9914;51.008;4.300;2023-04-24T12:33:43;13.80;99.90
19538;DHT22;9914;51.008;4.300;2023-04-24T12:36:12;13.60;99.90
19538;DHT22;9914;51.008;4.300;2023-04-24T12:38:39;13.30;99.90
19538;DHT22;9914;51.008;4.300;2023-04-24T12:41:12;13.60;99.90
19538;DHT22;9914;51.008;4.300;2023-04-24T12:43:38;13.70;99.90
19538;DHT22;9914;51.008;4.300;2023-04-24T12:46:04;13.70;99.90
19538;DHT22;9914;51.008;4.300;2023-04-24T12:48:31;14.00;99.90
19538;DHT22;9914;51.008;4.300;2023-04-24T12:50:58;14.10;99.90
19538;DHT22;9914;51.008;4.300;2023-04-24T12:53:27;14.00;99.90
19538;DHT22;9914;51.008;4.300;2023-04-24T12:55:53;14.20;99.90
19538;DHT22;9914;51.008;4.300;2023-04-24T12:58:22;14.00;99.90
19538;DHT22;9914;51.008;4.300;2023-04-24T13:00:48;13.90;99.90
19538;DHT22;9914;51.008;4.300;2023-04-24T13:03:14;13.80;99.90
19538;DHT22;9914;51.008;4.300;2023-04-24T13:05:41;14.00;99.90
19538;DHT22;9914;51.008;4.300;2023-04-24T13:08:07;14.20;99.90
19538;DHT22;9914;51.008;4.300;2023-04-24T13:10:34;14.40;99.90
19538;DHT22;9914;51.008;4.300;2023-04-24T13:13:00;14.10;99.90
19538;DHT22;9914;51.008;4.300;2023-04-24T13:15:26;14.20;99.90
19538;DHT22;9914;51.008;4.300;2023-04-24T13:17:51;14.20;99.90
19538;DHT22;9914;51.008;4.300;2023-04-24T13:20:18;14.10;99.90
19538;DHT22;9914;51.008;4.300;2023-04-24T13:22:44;14.20;99.90
19538;DHT22;9914;51.008;4.300;2023-04-24T13:25:09;14.20;99.90
19538;DHT22;9914;51.008;4.300;2023-04-24T13:27:37;14.20;99.90
19538;DHT22;9914;51.008;4.300;2023-04-24T13:30:03;14.30;99.90
19538;DHT22;9914;51.008;4.300;2023-04-24T13:32:29;14.30;99.90
19538;DHT22;9914;51.008;4.300;2023-04-24T13:34:55;14.20;99.90
19538;DHT22;9914;51.008;4.300;2023-04-24T13:37:21;13.90;99.90
19538;DHT22;9914;51.008;4.300;2023-04-24T13:39:48;13.90;99.90
19538;DHT22;9914;51.008;4.300;2023-04-24T13:42:13;13.80;99.90
19538;DHT22;9914;51.008;4.300;2023-04-24T13:44:40;13.90;99.90
19538;DHT22;9914;51.008;4.300;2023-04-24T13:47:05;14.10;99.90
19538;DHT22;9914;51.008;4.300;2023-04-24T13:49:31;14.20;99.90
19538;DHT22;9914;51.008;4.300;2023-04-24T13:51:57;14.20;99.90
19538;DHT22;9914;51.008;4.300;2023-04-24T13:54:22;13.80;99.90
19538;DHT22;9914;51.008;4.300;2023-04-24T13:56:51;14.00;99.90
19538;DHT22;9914;51.008;4.300;2023-04-24T13:59:17;13.80;99.90
19538;DHT22;9914;51.008;4.300;2023-04-24T14:01:44;13.40;99.90
19538;DHT22;9914;51.008;4.300;2023-04-24T14:04:10;13.90;99.90
19538;DHT22;9914;51.008;4.300;2023-04-24T14:06:36;13.60;99.90
19538;DHT22;9914;51.008;4.300;2023-04-24T14:09:02;14.00;99.90
19538;DHT22;9914;51.008;4.300;2023-04-24T14:11:28;13.20;99.90
19538;DHT22;9914;51.008;4.300;2023-04-24T14:13:54;13.50;99.90
19538;DHT22;9914;51.008;4.300;2023-04-24T14:16:21;13.50;99.90
19538;DHT22;9914;51.008;4.300;2023-04-24T14:18:47;13.90;99.90
19538;DHT22;9914;51.008;4.300;2023-04-24T14:21:13;14.20;99.90
19538;DHT22;9914;51.008;4.300;2023-04-24T14:23:38;14.20;99.90
19538;DHT22;9914;51.008;4.300;2023-04-24T14:26:04;14.20;99.90
19538;DHT22;9914;51.008;4.300;2023-04-24T14:28:30;14.50;99.90
19538;DHT22;9914;51.008;4.300;2023-04-24T14:30:55;14.60;99.90
19538;DHT22;9914;51.008;4.300;2023-04-24T14:33:21;14.50;99.90
19538;DHT22;9914;51.008;4.300;2023-04-24T14:35:47;14.50;99.90
19538;DHT22;9914;51.008;4.300;2023-04-24T14:38:13;14.50;99.90
19538;DHT22;9914;51.008;4.300;2023-04-24T14:40:39;14.70;99.90
19538;DHT22;9914;51.008;4.300;2023-04-24T14:43:05;14.50;99.90
19538;DHT22;9914;51.008;4.300;2023-04-24T14:45:32;14.50;99.90
19538;DHT22;9914;51.008;4.300;2023-04-24T14:47:58;14.60;99.90
19538;DHT22;9914;51.008;4.300;2023-04-24T14:50:23;14.60;99.90
19538;DHT22;9914;51.008;4.300;2023-04-24T14:52:53;14.50;99.90
19538;DHT22;9914;51.008;4.300;2023-04-24T14:55:20;14.40;99.90
19538;DHT22;9914;51.008;4.300;2023-04-24T14:57:45;13.60;99.90
19538;DHT22;9914;51.008;4.300;2023-04-24T15:00:12;13.50;99.90
19538;DHT22;9914;51.008;4.300;2023-04-24T15:02:38;13.80;99.90
19538;DHT22;9914;51.008;4.300;2023-04-24T15:05:07;13.60;99.90
19538;DHT22;9914;51.008;4.300;2023-04-24T15:07:33;13.20;99.90
19538;DHT22;9914;51.008;4.300;2023-04-24T15:10:00;12.90;99.90
19538;DHT22;9914;51.008;4.300;2023-04-24T15:12:26;13.20;99.90
19538;DHT22;9914;51.008;4.300;2023-04-24T15:14:54;13.20;99.90
19538;DHT22;9914;51.008;4.300;2023-04-24T15:17:19;13.00;99.90
19538;DHT22;9914;51.008;4.300;2023-04-24T15:19:45;13.30;99.90
19538;DHT22;9914;51.008;4.300;2023-04-24T15:22:11;13.70;99.90
19538;DHT22;9914;51.008;4.300;2023-04-24T15:24:36;13.40;99.90
19538;DHT22;9914;51.008;4.300;2023-04-24T15:27:02;13.40;99.90
19538;DHT22;9914;51.008;4.300;2023-04-24T15:29:28;13.80;99.90
19538;DHT22;9914;51.008;4.300;2023-04-24T15:31:54;13.80;99.90
19538;DHT22;9914;51.008;4.300;2023-04-24T15:34:20;13.50;99.90
19538;DHT22;9914;51.008;4.300;2023-04-24T15:36:46;13.30;99.90
19538;DHT22;9914;51.008;4.300;2023-04-24T15:39:12;13.10;99.90
19538;DHT22;9914;51.008;4.300;2023-04-24T15:41:37;13.00;99.90
19538;DHT22;9914;51.008;4.300;2023-04-24T15:44:03;13.40;99.90
19538;DHT22;9914;51.008;4.300;2023-04-24T15:46:29;13.50;99.90
19538;DHT22;9914;51.008;4.300;2023-04-24T15:48:55;14.00;99.90
19538;DHT22;9914;51.008;4.300;2023-04-24T15:51:20;14.00;99.90
19538;DHT22;9914;51.008;4.300;2023-04-24T15:53:46;13.80;99.90
19538;DHT22;9914;51.008;4.300;2023-04-24T15:56:12;13.80;99.90